GABS Airport Information

Runway Information
Runway 06 Length 10498 ft width 148 ft
Elevation 1187 ft Threshold ft Heading 57
Runway 24 Length 10498 ft Width 148 ft
Elevation 1244 ft Threshold ft Heading 237
Airport Frequencies
Type A/G Name A/G Frequency 667.3 MHZ
Type ACC Name ACC Frequency 119.1 MHZ
Type TWR Name TWR Frequency 118.3 MHZ
Airport Navaids
Type VOR-DME Name Bamako/Senou Frequency 113700 KHZ
Type NDB Name Bamako/Senou Frequency 301 KHZ
Airport Weather Information & NOTAM
ADDS - METARS form results

(1956 UTC 10 August 2022)
Data provider http://aviationweather.gov/metar/data/
 
METAR text: GABS 101930Z 27006KT 9999 TS SCT020 FEW030CB 29/23 Q1012 NOSIG
Conditions at: GABS (BAMAKO/SENOU (MI, ML) observed 1930 UTC 10 August 2022
Temperature: 29.0°C (84°F)
Dewpoint: 23.0°C (73°F) [RH = 70%]
Pressure (altimeter): 29.88 inches Hg (1012.0 mb)
Winds: from the W (270 degrees) at 7 MPH (6 knots; 3.1 m/s)
Visibility: 6 or more miles (10+ km)
Ceiling: at least 12,000 feet AGL
Clouds: scattered clouds at 2000 feet AGL
few clouds at 3000 feet AGL
Weather: TS  (thunderstorm)

METAR text: GABS 101900Z VRB03KT 9999 TS SCT020 FEW030CB 29/25 Q1012 TEMPO 4000 TSRA
Conditions at: GABS (BAMAKO/SENOU (MI, ML) observed 1900 UTC 10 August 2022
Temperature: 29.0°C (84°F)
Dewpoint: 25.0°C (77°F) [RH = 79%]
Pressure (altimeter): 29.88 inches Hg (1012.0 mb)
Winds: variable direction winds at 3 MPH (3 knots; 1.5 m/s)
Visibility: 6 or more miles (10+ km)
Ceiling: at least 12,000 feet AGL
Clouds: scattered clouds at 2000 feet AGL
few clouds at 3000 feet AGL
Weather: TS  (thunderstorm)

Forecast for: GABS (BAMAKO/SENOU (MI, ML)
Text: TAF GABS 101730Z 1018/1124 22008KT 9999 SCT020
Forecast period: 1800 UTC 10 August 2022 to 0000 UTC 12 August 2022
Forecast type: FROM: standard forecast or significant change
Winds: from the SW (220 degrees) at 9 MPH (8 knots; 4.1 m/s)
Visibility: 6 or more miles (10+ km)
Ceiling: at least 12,000 feet AGL
Clouds: scattered clouds at 2000 feet AGL
Weather: no significant weather forecast for this period
Text: TEMPO 1018/1020 TS SCT020 FEW026CB
Forecast period: 1800 to 2000 UTC 10 August 2022
Forecast type: TEMPORARY: The following changes expected for less than half the time period
Visibility: missing
Ceiling: at least 12,000 feet AGL
Clouds: scattered clouds at 2000 feet AGL
few clouds at 2600 feet AGL
Weather: TS  (thunderstorm)
Text: TEMPO 1020/1103 VRB18G35KT 3000 TSRA BKN020 SCT026CB
Forecast period: 2000 UTC 10 August 2022 to 0300 UTC 11 August 2022
Forecast type: TEMPORARY: The following changes expected for less than half the time period
Winds: variable direction winds at 21 MPH (18 knots; 9.3 m/s)
gusting to 40 MPH (35 knots; 18.0 m/s)
Visibility: 1.86 miles (2.99 km)
Ceiling: 2000 feet AGL
Clouds: broken clouds at 2000 feet AGL
scattered clouds at 2600 feet AGL
Weather: TSRA  (rain associated with thunderstorm(s))